sensor_id;sensor_type;location;lat;lon;timestamp;P1;durP1;ratioP1;P2;durP2;ratioP2
57697;SDS011;43531;52.152;6.366;2024-02-26T00:00:33;10.10;;;5.88;;
57697;SDS011;43531;52.152;6.366;2024-02-26T00:01:11;6.22;;;5.63;;
57697;SDS011;43531;52.152;6.366;2024-02-26T00:02:17;7.05;;;5.55;;
57697;SDS011;43531;52.152;6.366;2024-02-26T00:03:19;5.82;;;5.28;;
57697;SDS011;43531;52.152;6.366;2024-02-26T00:04:16;5.65;;;5.00;;
57697;SDS011;43531;52.152;6.366;2024-02-26T00:05:11;6.55;;;5.70;;
57697;SDS011;43531;52.152;6.366;2024-02-26T00:06:21;6.53;;;5.68;;
57697;SDS011;43531;52.152;6.366;2024-02-26T00:06:56;6.00;;;5.40;;
57697;SDS011;43531;52.152;6.366;2024-02-26T00:07:56;6.45;;;5.20;;
57697;SDS011;43531;52.152;6.366;2024-02-26T00:08:57;6.35;;;5.68;;
57697;SDS011;43531;52.152;6.366;2024-02-26T00:09:44;7.13;;;6.43;;
57697;SDS011;43531;52.152;6.366;2024-02-26T00:10:56;6.93;;;6.18;;
57697;SDS011;43531;52.152;6.366;2024-02-26T00:11:44;7.72;;;6.03;;
57697;SDS011;43531;52.152;6.366;2024-02-26T00:14:39;6.43;;;4.72;;
57697;SDS011;43531;52.152;6.366;2024-02-26T00:15:35;8.20;;;5.70;;
57697;SDS011;43531;52.152;6.366;2024-02-26T00:16:21;8.27;;;5.35;;
57697;SDS011;43531;52.152;6.366;2024-02-26T00:19:55;5.35;;;4.85;;
57697;SDS011;43531;52.152;6.366;2024-02-26T00:20:58;6.22;;;5.35;;
57697;SDS011;43531;52.152;6.366;2024-02-26T00:23:18;4.80;;;4.40;;
57697;SDS011;43531;52.152;6.366;2024-02-26T00:24:19;6.13;;;5.32;;
57697;SDS011;43531;52.152;6.366;2024-02-26T00:25:51;9.57;;;5.75;;
57697;SDS011;43531;52.152;6.366;2024-02-26T00:26:28;7.97;;;5.30;;
57697;SDS011;43531;52.152;6.366;2024-02-26T00:27:23;6.68;;;5.97;;
57697;SDS011;43531;52.152;6.366;2024-02-26T00:28:07;7.78;;;5.65;;
57697;SDS011;43531;52.152;6.366;2024-02-26T00:28:58;8.25;;;5.22;;
57697;SDS011;43531;52.152;6.366;2024-02-26T00:29:38;6.28;;;5.40;;
57697;SDS011;43531;52.152;6.366;2024-02-26T00:30:22;6.38;;;5.65;;
57697;SDS011;43531;52.152;6.366;2024-02-26T00:31:26;7.15;;;6.38;;
57697;SDS011;43531;52.152;6.366;2024-02-26T00:32:12;6.22;;;5.57;;
57697;SDS011;43531;52.152;6.366;2024-02-26T00:32:54;6.25;;;5.63;;
57697;SDS011;43531;52.152;6.366;2024-02-26T00:33:44;5.90;;;5.00;;
57697;SDS011;43531;52.152;6.366;2024-02-26T00:34:36;6.97;;;5.05;;
57697;SDS011;43531;52.152;6.366;2024-02-26T00:35:26;6.90;;;5.50;;
57697;SDS011;43531;52.152;6.366;2024-02-26T00:36:22;5.60;;;5.05;;
57697;SDS011;43531;52.152;6.366;2024-02-26T00:37:10;11.18;;;7.03;;
57697;SDS011;43531;52.152;6.366;2024-02-26T00:38:04;6.43;;;5.70;;
57697;SDS011;43531;52.152;6.366;2024-02-26T00:40:12;6.47;;;5.72;;
57697;SDS011;43531;52.152;6.366;2024-02-26T00:40:54;10.05;;;6.50;;
57697;SDS011;43531;52.152;6.366;2024-02-26T00:42:27;4.95;;;4.47;;
57697;SDS011;43531;52.152;6.366;2024-02-26T00:43:20;8.38;;;6.32;;
57697;SDS011;43531;52.152;6.366;2024-02-26T00:44:22;8.93;;;6.40;;
57697;SDS011;43531;52.152;6.366;2024-02-26T00:45:17;6.90;;;5.32;;
57697;SDS011;43531;52.152;6.366;2024-02-26T00:45:59;7.07;;;6.10;;
57697;SDS011;43531;52.152;6.366;2024-02-26T00:46:46;6.65;;;6.05;;
57697;SDS011;43531;52.152;6.366;2024-02-26T00:47:24;5.97;;;5.30;;
57697;SDS011;43531;52.152;6.366;2024-02-26T00:47:56;8.75;;;6.50;;
57697;SDS011;43531;52.152;6.366;2024-02-26T00:48:41;6.60;;;6.03;;
57697;SDS011;43531;52.152;6.366;2024-02-26T00:49:13;8.30;;;6.75;;
57697;SDS011;43531;52.152;6.366;2024-02-26T00:50:05;7.00;;;6.40;;
57697;SDS011;43531;52.152;6.366;2024-02-26T00:50:58;6.85;;;6.25;;
57697;SDS011;43531;52.152;6.366;2024-02-26T00:52:01;7.32;;;6.63;;
57697;SDS011;43531;52.152;6.366;2024-02-26T00:52:47;6.63;;;5.93;;
57697;SDS011;43531;52.152;6.366;2024-02-26T00:53:35;8.13;;;6.97;;
57697;SDS011;43531;52.152;6.366;2024-02-26T00:54:27;9.88;;;6.25;;
57697;SDS011;43531;52.152;6.366;2024-02-26T00:55:06;7.22;;;6.50;;
57697;SDS011;43531;52.152;6.366;2024-02-26T00:55:55;7.70;;;6.90;;
57697;SDS011;43531;52.152;6.366;2024-02-26T00:56:30;6.28;;;5.68;;
57697;SDS011;43531;52.152;6.366;2024-02-26T00:57:29;6.20;;;5.60;;
57697;SDS011;43531;52.152;6.366;2024-02-26T00:58:01;8.82;;;7.07;;
57697;SDS011;43531;52.152;6.366;2024-02-26T00:59:19;6.78;;;6.18;;
57697;SDS011;43531;52.152;6.366;2024-02-26T01:00:08;7.50;;;6.47;;
57697;SDS011;43531;52.152;6.366;2024-02-26T01:00:47;7.88;;;7.00;;
57697;SDS011;43531;52.152;6.366;2024-02-26T01:01:22;7.22;;;6.53;;
57697;SDS011;43531;52.152;6.366;2024-02-26T01:01:56;7.60;;;6.70;;
57697;SDS011;43531;52.152;6.366;2024-02-26T01:02:59;7.50;;;6.80;;
57697;SDS011;43531;52.152;6.366;2024-02-26T01:03:54;8.38;;;6.85;;
57697;SDS011;43531;52.152;6.366;2024-02-26T01:04:26;8.27;;;7.35;;
57697;SDS011;43531;52.152;6.366;2024-02-26T01:05:01;7.15;;;6.45;;
57697;SDS011;43531;52.152;6.366;2024-02-26T01:06:51;5.93;;;5.43;;
57697;SDS011;43531;52.152;6.366;2024-02-26T01:07:23;9.35;;;6.55;;
57697;SDS011;43531;52.152;6.366;2024-02-26T01:09:17;8.35;;;7.47;;
57697;SDS011;43531;52.152;6.366;2024-02-26T01:09:57;7.60;;;6.93;;
57697;SDS011;43531;52.152;6.366;2024-02-26T01:11:11;7.55;;;6.43;;
57697;SDS011;43531;52.152;6.366;2024-02-26T01:11:55;8.63;;;7.68;;
57697;SDS011;43531;52.152;6.366;2024-02-26T01:12:33;7.85;;;7.10;;
57697;SDS011;43531;52.152;6.366;2024-02-26T01:13:18;8.65;;;7.75;;
57697;SDS011;43531;52.152;6.366;2024-02-26T01:13:58;9.02;;;7.50;;
57697;SDS011;43531;52.152;6.366;2024-02-26T01:14:29;10.18;;;7.00;;
57697;SDS011;43531;52.152;6.366;2024-02-26T01:15:22;8.93;;;7.95;;
57697;SDS011;43531;52.152;6.366;2024-02-26T01:16:07;8.80;;;6.80;;
57697;SDS011;43531;52.152;6.366;2024-02-26T01:16:39;9.18;;;8.15;;
57697;SDS011;43531;52.152;6.366;2024-02-26T01:17:13;8.60;;;7.80;;
57697;SDS011;43531;52.152;6.366;2024-02-26T01:17:58;11.93;;;8.10;;
57697;SDS011;43531;52.152;6.366;2024-02-26T01:18:33;8.85;;;7.95;;
57697;SDS011;43531;52.152;6.366;2024-02-26T01:19:21;8.27;;;7.30;;
57697;SDS011;43531;52.152;6.366;2024-02-26T01:19:55;9.90;;;8.43;;
57697;SDS011;43531;52.152;6.366;2024-02-26T01:20:27;12.32;;;9.07;;
57697;SDS011;43531;52.152;6.366;2024-02-26T01:21:13;8.90;;;7.93;;
57697;SDS011;43531;52.152;6.366;2024-02-26T01:22:05;9.80;;;8.07;;
57697;SDS011;43531;52.152;6.366;2024-02-26T01:22:49;9.90;;;8.35;;
57697;SDS011;43531;52.152;6.366;2024-02-26T01:23:27;10.07;;;8.93;;
57697;SDS011;43531;52.152;6.366;2024-02-26T01:24:05;9.95;;;8.93;;
57697;SDS011;43531;52.152;6.366;2024-02-26T01:24:57;10.93;;;8.90;;
57697;SDS011;43531;52.152;6.366;2024-02-26T01:25:44;9.30;;;8.35;;
57697;SDS011;43531;52.152;6.366;2024-02-26T01:26:19;10.85;;;9.02;;
57697;SDS011;43531;52.152;6.366;2024-02-26T01:26:53;10.35;;;8.63;;
57697;SDS011;43531;52.152;6.366;2024-02-26T01:27:35;17.05;;;9.88;;
57697;SDS011;43531;52.152;6.366;2024-02-26T01:28:20;9.32;;;8.50;;
57697;SDS011;43531;52.152;6.366;2024-02-26T01:29:31;10.60;;;8.90;;
57697;SDS011;43531;52.152;6.366;2024-02-26T01:30:13;10.45;;;8.43;;
57697;SDS011;43531;52.152;6.366;2024-02-26T01:31:06;10.20;;;9.10;;
57697;SDS011;43531;52.152;6.366;2024-02-26T01:31:54;11.05;;;9.00;;
57697;SDS011;43531;52.152;6.366;2024-02-26T01:32:37;12.52;;;9.57;;
57697;SDS011;43531;52.152;6.366;2024-02-26T01:33:18;10.18;;;8.63;;
57697;SDS011;43531;52.152;6.366;2024-02-26T01:35:30;12.93;;;9.82;;
57697;SDS011;43531;52.152;6.366;2024-02-26T01:36:27;11.07;;;9.38;;
57697;SDS011;43531;52.152;6.366;2024-02-26T01:37:16;13.35;;;9.57;;
57697;SDS011;43531;52.152;6.366;2024-02-26T01:38:09;10.43;;;9.15;;
57697;SDS011;43531;52.152;6.366;2024-02-26T01:38:51;11.55;;;9.68;;
57697;SDS011;43531;52.152;6.366;2024-02-26T01:39:35;10.15;;;9.05;;
57697;SDS011;43531;52.152;6.366;2024-02-26T01:40:27;12.07;;;9.70;;
57697;SDS011;43531;52.152;6.366;2024-02-26T01:41:17;10.77;;;9.32;;
57697;SDS011;43531;52.152;6.366;2024-02-26T01:41:52;11.63;;;9.77;;
57697;SDS011;43531;52.152;6.366;2024-02-26T01:43:17;11.95;;;8.00;;
57697;SDS011;43531;52.152;6.366;2024-02-26T01:45:41;10.50;;;8.02;;
57697;SDS011;43531;52.152;6.366;2024-02-26T01:46:36;9.80;;;8.48;;
57697;SDS011;43531;52.152;6.366;2024-02-26T01:47:19;10.43;;;7.78;;
57697;SDS011;43531;52.152;6.366;2024-02-26T01:48:07;11.90;;;10.15;;
57697;SDS011;43531;52.152;6.366;2024-02-26T01:49:08;9.93;;;8.23;;
57697;SDS011;43531;52.152;6.366;2024-02-26T01:49:55;12.35;;;8.68;;
57697;SDS011;43531;52.152;6.366;2024-02-26T01:51:05;9.65;;;8.07;;
57697;SDS011;43531;52.152;6.366;2024-02-26T01:52:12;12.40;;;7.47;;
57697;SDS011;43531;52.152;6.366;2024-02-26T01:53:00;10.10;;;7.60;;
57697;SDS011;43531;52.152;6.366;2024-02-26T01:54:08;9.20;;;7.45;;
57697;SDS011;43531;52.152;6.366;2024-02-26T01:55:00;11.38;;;8.48;;
57697;SDS011;43531;52.152;6.366;2024-02-26T01:56:00;9.13;;;8.18;;
57697;SDS011;43531;52.152;6.366;2024-02-26T01:56:50;9.68;;;8.68;;
57697;SDS011;43531;52.152;6.366;2024-02-26T01:57:48;9.80;;;8.52;;
57697;SDS011;43531;52.152;6.366;2024-02-26T01:58:45;11.00;;;8.13;;
57697;SDS011;43531;52.152;6.366;2024-02-26T01:59:54;10.13;;;7.53;;
57697;SDS011;43531;52.152;6.366;2024-02-26T02:01:06;8.27;;;6.72;;
57697;SDS011;43531;52.152;6.366;2024-02-26T02:01:51;8.88;;;7.47;;
57697;SDS011;43531;52.152;6.366;2024-02-26T02:03:03;8.68;;;6.57;;
57697;SDS011;43531;52.152;6.366;2024-02-26T02:03:48;9.80;;;7.47;;
57697;SDS011;43531;52.152;6.366;2024-02-26T02:04:56;7.03;;;6.28;;
57697;SDS011;43531;52.152;6.366;2024-02-26T02:05:49;10.60;;;6.55;;
57697;SDS011;43531;52.152;6.366;2024-02-26T02:06:53;9.10;;;7.45;;
57697;SDS011;43531;52.152;6.366;2024-02-26T02:07:50;8.00;;;7.07;;
57697;SDS011;43531;52.152;6.366;2024-02-26T02:08:34;8.77;;;6.88;;
57697;SDS011;43531;52.152;6.366;2024-02-26T02:09:19;8.63;;;7.20;;
57697;SDS011;43531;52.152;6.366;2024-02-26T02:10:01;12.80;;;8.85;;
57697;SDS011;43531;52.152;6.366;2024-02-26T02:11:16;8.45;;;7.57;;
57697;SDS011;43531;52.152;6.366;2024-02-26T02:12:14;8.63;;;6.82;;
57697;SDS011;43531;52.152;6.366;2024-02-26T02:13:07;9.55;;;6.47;;
57697;SDS011;43531;52.152;6.366;2024-02-26T02:14:00;7.07;;;6.07;;
57697;SDS011;43531;52.152;6.366;2024-02-26T02:14:54;9.55;;;7.50;;
57697;SDS011;43531;52.152;6.366;2024-02-26T02:15:45;10.85;;;8.43;;
57697;SDS011;43531;52.152;6.366;2024-02-26T02:16:30;7.95;;;7.15;;
57697;SDS011;43531;52.152;6.366;2024-02-26T02:17:34;6.97;;;6.25;;
57697;SDS011;43531;52.152;6.366;2024-02-26T02:18:50;7.95;;;6.20;;
57697;SDS011;43531;52.152;6.366;2024-02-26T02:19:40;10.50;;;6.93;;
57697;SDS011;43531;52.152;6.366;2024-02-26T02:20:47;6.97;;;6.28;;
57697;SDS011;43531;52.152;6.366;2024-02-26T02:22:48;8.20;;;6.80;;
57697;SDS011;43531;52.152;6.366;2024-02-26T02:23:40;7.57;;;6.78;;
57697;SDS011;43531;52.152;6.366;2024-02-26T02:24:40;8.07;;;5.68;;
57697;SDS011;43531;52.152;6.366;2024-02-26T02:25:40;9.73;;;6.88;;
57697;SDS011;43531;52.152;6.366;2024-02-26T02:26:40;8.30;;;6.97;;
57697;SDS011;43531;52.152;6.366;2024-02-26T02:27:27;10.57;;;6.28;;
57697;SDS011;43531;52.152;6.366;2024-02-26T02:28:34;10.30;;;6.55;;
57697;SDS011;43531;52.152;6.366;2024-02-26T02:29:25;8.95;;;7.15;;
57697;SDS011;43531;52.152;6.366;2024-02-26T02:30:19;8.32;;;6.90;;
57697;SDS011;43531;52.152;6.366;2024-02-26T02:32:33;6.93;;;6.15;;
57697;SDS011;43531;52.152;6.366;2024-02-26T02:33:17;8.55;;;6.53;;
57697;SDS011;43531;52.152;6.366;2024-02-26T02:34:10;7.88;;;7.07;;
57697;SDS011;43531;52.152;6.366;2024-02-26T02:35:41;8.15;;;6.82;;
57697;SDS011;43531;52.152;6.366;2024-02-26T02:36:25;17.20;;;6.45;;
57697;SDS011;43531;52.152;6.366;2024-02-26T02:37:44;11.88;;;5.93;;
57697;SDS011;43531;52.152;6.366;2024-02-26T02:38:50;6.55;;;5.88;;
57697;SDS011;43531;52.152;6.366;2024-02-26T02:39:48;7.13;;;4.97;;
57697;SDS011;43531;52.152;6.366;2024-02-26T02:40:51;7.43;;;6.50;;
57697;SDS011;43531;52.152;6.366;2024-02-26T02:42:04;7.53;;;5.70;;
57697;SDS011;43531;52.152;6.366;2024-02-26T02:42:50;6.72;;;5.22;;
57697;SDS011;43531;52.152;6.366;2024-02-26T02:43:36;7.72;;;6.10;;
57697;SDS011;43531;52.152;6.366;2024-02-26T02:44:27;12.88;;;5.10;;
57697;SDS011;43531;52.152;6.366;2024-02-26T02:46:02;6.57;;;5.18;;
57697;SDS011;43531;52.152;6.366;2024-02-26T02:47:06;8.68;;;6.25;;
57697;SDS011;43531;52.152;6.366;2024-02-26T02:48:20;7.07;;;5.35;;
57697;SDS011;43531;52.152;6.366;2024-02-26T02:49:19;5.85;;;5.13;;
57697;SDS011;43531;52.152;6.366;2024-02-26T02:50:24;6.13;;;5.05;;
57697;SDS011;43531;52.152;6.366;2024-02-26T02:51:21;6.10;;;5.25;;
57697;SDS011;43531;52.152;6.366;2024-02-26T02:52:41;6.10;;;5.20;;
57697;SDS011;43531;52.152;6.366;2024-02-26T02:53:29;7.78;;;6.00;;
57697;SDS011;43531;52.152;6.366;2024-02-26T02:54:34;10.65;;;6.93;;
57697;SDS011;43531;52.152;6.366;2024-02-26T02:55:24;7.80;;;5.50;;
57697;SDS011;43531;52.152;6.366;2024-02-26T02:56:14;6.43;;;5.70;;
57697;SDS011;43531;52.152;6.366;2024-02-26T02:57:13;6.65;;;5.07;;
57697;SDS011;43531;52.152;6.366;2024-02-26T02:57:51;6.43;;;5.82;;
57697;SDS011;43531;52.152;6.366;2024-02-26T02:59:31;8.48;;;4.70;;
57697;SDS011;43531;52.152;6.366;2024-02-26T03:00:40;7.22;;;5.75;;
57697;SDS011;43531;52.152;6.366;2024-02-26T03:01:41;10.07;;;5.20;;
57697;SDS011;43531;52.152;6.366;2024-02-26T03:02:33;7.25;;;5.43;;
57697;SDS011;43531;52.152;6.366;2024-02-26T03:03:16;6.28;;;5.22;;
57697;SDS011;43531;52.152;6.366;2024-02-26T03:04:15;11.70;;;5.55;;
57697;SDS011;43531;52.152;6.366;2024-02-26T03:05:05;7.18;;;4.63;;
57697;SDS011;43531;52.152;6.366;2024-02-26T03:05:59;8.85;;;5.40;;
57697;SDS011;43531;52.152;6.366;2024-02-26T03:07:02;7.05;;;5.25;;
57697;SDS011;43531;52.152;6.366;2024-02-26T03:07:46;6.13;;;4.90;;
57697;SDS011;43531;52.152;6.366;2024-02-26T03:09:46;8.07;;;5.55;;
57697;SDS011;43531;52.152;6.366;2024-02-26T03:10:57;5.25;;;4.57;;
57697;SDS011;43531;52.152;6.366;2024-02-26T03:12:11;6.00;;;4.25;;
57697;SDS011;43531;52.152;6.366;2024-02-26T03:14:24;6.28;;;4.80;;
57697;SDS011;43531;52.152;6.366;2024-02-26T03:15:30;5.95;;;4.63;;
57697;SDS011;43531;52.152;6.366;2024-02-26T03:16:31;6.22;;;4.55;;
57697;SDS011;43531;52.152;6.366;2024-02-26T03:17:34;8.23;;;4.88;;
57697;SDS011;43531;52.152;6.366;2024-02-26T03:18:29;5.15;;;4.30;;
57697;SDS011;43531;52.152;6.366;2024-02-26T03:20:51;7.82;;;4.90;;
57697;SDS011;43531;52.152;6.366;2024-02-26T03:21:44;10.75;;;6.22;;
57697;SDS011;43531;52.152;6.366;2024-02-26T03:22:43;7.25;;;4.60;;
57697;SDS011;43531;52.152;6.366;2024-02-26T03:23:30;6.68;;;5.63;;
57697;SDS011;43531;52.152;6.366;2024-02-26T03:24:30;7.07;;;5.22;;
57697;SDS011;43531;52.152;6.366;2024-02-26T03:25:27;7.47;;;5.05;;
57697;SDS011;43531;52.152;6.366;2024-02-26T03:26:57;5.03;;;4.47;;
57697;SDS011;43531;52.152;6.366;2024-02-26T03:28:08;7.65;;;4.55;;
57697;SDS011;43531;52.152;6.366;2024-02-26T03:29:11;9.70;;;4.90;;
57697;SDS011;43531;52.152;6.366;2024-02-26T03:30:11;6.88;;;5.25;;
57697;SDS011;43531;52.152;6.366;2024-02-26T03:31:17;6.82;;;5.47;;
57697;SDS011;43531;52.152;6.366;2024-02-26T03:33:16;9.15;;;6.10;;
57697;SDS011;43531;52.152;6.366;2024-02-26T03:34:00;5.38;;;4.30;;
57697;SDS011;43531;52.152;6.366;2024-02-26T03:35:07;6.43;;;4.88;;
57697;SDS011;43531;52.152;6.366;2024-02-26T03:36:17;6.47;;;5.60;;
57697;SDS011;43531;52.152;6.366;2024-02-26T03:37:18;7.70;;;5.10;;
57697;SDS011;43531;52.152;6.366;2024-02-26T03:38:12;11.05;;;5.50;;
57697;SDS011;43531;52.152;6.366;2024-02-26T03:39:20;6.32;;;4.93;;
57697;SDS011;43531;52.152;6.366;2024-02-26T03:40:16;6.15;;;5.03;;
57697;SDS011;43531;52.152;6.366;2024-02-26T03:41:28;6.28;;;4.93;;
57697;SDS011;43531;52.152;6.366;2024-02-26T03:42:28;3.67;;;3.28;;
57697;SDS011;43531;52.152;6.366;2024-02-26T03:43:21;7.38;;;5.25;;
57697;SDS011;43531;52.152;6.366;2024-02-26T03:44:20;6.50;;;4.85;;
57697;SDS011;43531;52.152;6.366;2024-02-26T03:45:02;6.55;;;5.00;;
57697;SDS011;43531;52.152;6.366;2024-02-26T03:46:07;6.88;;;4.97;;
57697;SDS011;43531;52.152;6.366;2024-02-26T03:47:12;8.70;;;5.47;;
57697;SDS011;43531;52.152;6.366;2024-02-26T03:47:54;6.57;;;4.57;;
57697;SDS011;43531;52.152;6.366;2024-02-26T03:49:02;7.65;;;4.85;;
57697;SDS011;43531;52.152;6.366;2024-02-26T03:49:59;10.50;;;6.22;;
57697;SDS011;43531;52.152;6.366;2024-02-26T03:50:49;6.72;;;5.32;;
57697;SDS011;43531;52.152;6.366;2024-02-26T03:52:06;5.55;;;4.40;;
57697;SDS011;43531;52.152;6.366;2024-02-26T03:52:38;4.90;;;4.40;;
57697;SDS011;43531;52.152;6.366;2024-02-26T03:53:10;7.82;;;5.03;;
57697;SDS011;43531;52.152;6.366;2024-02-26T03:53:45;5.60;;;4.85;;
57697;SDS011;43531;52.152;6.366;2024-02-26T03:54:17;5.75;;;5.05;;
57697;SDS011;43531;52.152;6.366;2024-02-26T03:54:48;8.38;;;5.85;;
57697;SDS011;43531;52.152;6.366;2024-02-26T03:55:21;9.70;;;6.03;;
57697;SDS011;43531;52.152;6.366;2024-02-26T03:55:56;7.28;;;6.20;;
57697;SDS011;43531;52.152;6.366;2024-02-26T03:56:28;8.73;;;6.47;;
57697;SDS011;43531;52.152;6.366;2024-02-26T03:56:59;5.45;;;4.53;;
57697;SDS011;43531;52.152;6.366;2024-02-26T03:57:32;5.95;;;4.93;;
57697;SDS011;43531;52.152;6.366;2024-02-26T03:58:03;10.18;;;6.70;;
57697;SDS011;43531;52.152;6.366;2024-02-26T03:58:35;6.00;;;5.25;;
57697;SDS011;43531;52.152;6.366;2024-02-26T03:59:07;7.60;;;5.78;;
57697;SDS011;43531;52.152;6.366;2024-02-26T03:59:38;8.85;;;5.78;;
57697;SDS011;43531;52.152;6.366;2024-02-26T04:00:11;7.68;;;6.22;;
57697;SDS011;43531;52.152;6.366;2024-02-26T04:00:43;8.00;;;6.03;;
57697;SDS011;43531;52.152;6.366;2024-02-26T04:01:15;10.27;;;5.70;;
57697;SDS011;43531;52.152;6.366;2024-02-26T04:01:47;7.97;;;6.28;;
57697;SDS011;43531;52.152;6.366;2024-02-26T04:02:19;7.65;;;5.90;;
57697;SDS011;43531;52.152;6.366;2024-02-26T04:02:51;10.60;;;6.65;;
57697;SDS011;43531;52.152;6.366;2024-02-26T04:03:22;8.32;;;5.78;;
57697;SDS011;43531;52.152;6.366;2024-02-26T04:03:54;6.22;;;5.63;;
57697;SDS011;43531;52.152;6.366;2024-02-26T04:04:26;9.25;;;5.40;;
57697;SDS011;43531;52.152;6.366;2024-02-26T04:04:58;8.10;;;6.28;;
57697;SDS011;43531;52.152;6.366;2024-02-26T04:05:30;6.93;;;5.22;;
57697;SDS011;43531;52.152;6.366;2024-02-26T04:06:02;9.07;;;6.03;;
57697;SDS011;43531;52.152;6.366;2024-02-26T04:06:34;8.30;;;7.47;;
57697;SDS011;43531;52.152;6.366;2024-02-26T04:07:06;8.35;;;7.55;;
57697;SDS011;43531;52.152;6.366;2024-02-26T04:07:38;12.50;;;8.30;;
57697;SDS011;43531;52.152;6.366;2024-02-26T04:08:10;7.38;;;6.57;;
57697;SDS011;43531;52.152;6.366;2024-02-26T04:08:42;8.80;;;7.43;;
57697;SDS011;43531;52.152;6.366;2024-02-26T04:09:14;8.23;;;6.93;;
57697;SDS011;43531;52.152;6.366;2024-02-26T04:09:46;7.60;;;6.90;;
57697;SDS011;43531;52.152;6.366;2024-02-26T04:10:18;8.07;;;7.28;;
57697;SDS011;43531;52.152;6.366;2024-02-26T04:10:49;8.57;;;7.28;;
57697;SDS011;43531;52.152;6.366;2024-02-26T04:11:21;8.32;;;7.47;;
57697;SDS011;43531;52.152;6.366;2024-02-26T04:11:53;7.78;;;6.70;;
57697;SDS011;43531;52.152;6.366;2024-02-26T04:12:25;7.50;;;6.80;;
57697;SDS011;43531;52.152;6.366;2024-02-26T04:12:56;7.30;;;6.60;;
57697;SDS011;43531;52.152;6.366;2024-02-26T04:13:28;7.45;;;6.57;;
57697;SDS011;43531;52.152;6.366;2024-02-26T04:14:00;7.63;;;6.82;;
57697;SDS011;43531;52.152;6.366;2024-02-26T04:14:31;7.53;;;6.72;;
57697;SDS011;43531;52.152;6.366;2024-02-26T04:15:03;7.50;;;6.70;;
57697;SDS011;43531;52.152;6.366;2024-02-26T04:15:36;8.88;;;6.57;;
57697;SDS011;43531;52.152;6.366;2024-02-26T04:16:07;8.50;;;7.07;;
57697;SDS011;43531;52.152;6.366;2024-02-26T04:16:39;8.35;;;7.55;;
57697;SDS011;43531;52.152;6.366;2024-02-26T04:17:10;7.70;;;6.93;;
57697;SDS011;43531;52.152;6.366;2024-02-26T04:17:42;9.77;;;7.53;;
57697;SDS011;43531;52.152;6.366;2024-02-26T04:18:14;7.07;;;6.32;;
57697;SDS011;43531;52.152;6.366;2024-02-26T04:18:46;7.72;;;6.85;;
57697;SDS011;43531;52.152;6.366;2024-02-26T04:19:18;7.22;;;6.53;;
57697;SDS011;43531;52.152;6.366;2024-02-26T04:19:50;6.82;;;6.18;;
57697;SDS011;43531;52.152;6.366;2024-02-26T04:20:22;7.05;;;5.72;;
57697;SDS011;43531;52.152;6.366;2024-02-26T04:20:54;6.25;;;5.57;;
57697;SDS011;43531;52.152;6.366;2024-02-26T04:21:26;7.10;;;6.32;;
57697;SDS011;43531;52.152;6.366;2024-02-26T04:21:57;7.60;;;6.78;;
57697;SDS011;43531;52.152;6.366;2024-02-26T04:22:29;7.88;;;6.95;;
57697;SDS011;43531;52.152;6.366;2024-02-26T04:23:01;8.25;;;6.90;;
57697;SDS011;43531;52.152;6.366;2024-02-26T04:23:32;7.85;;;7.03;;
57697;SDS011;43531;52.152;6.366;2024-02-26T04:24:04;8.73;;;7.32;;
57697;SDS011;43531;52.152;6.366;2024-02-26T04:24:36;8.35;;;7.05;;
57697;SDS011;43531;52.152;6.366;2024-02-26T04:25:08;7.20;;;6.47;;
57697;SDS011;43531;52.152;6.366;2024-02-26T04:25:42;7.75;;;6.72;;
57697;SDS011;43531;52.152;6.366;2024-02-26T04:26:14;8.95;;;7.30;;
57697;SDS011;43531;52.152;6.366;2024-02-26T04:26:46;9.75;;;7.45;;
57697;SDS011;43531;52.152;6.366;2024-02-26T04:27:18;6.32;;;5.70;;
57697;SDS011;43531;52.152;6.366;2024-02-26T04:27:50;6.95;;;6.07;;
57697;SDS011;43531;52.152;6.366;2024-02-26T04:28:21;8.25;;;7.50;;
57697;SDS011;43531;52.152;6.366;2024-02-26T04:28:53;6.53;;;5.90;;
57697;SDS011;43531;52.152;6.366;2024-02-26T04:29:24;7.10;;;6.35;;
57697;SDS011;43531;52.152;6.366;2024-02-26T04:29:56;7.72;;;6.93;;
57697;SDS011;43531;52.152;6.366;2024-02-26T04:30:28;6.38;;;5.78;;
57697;SDS011;43531;52.152;6.366;2024-02-26T04:31:00;7.15;;;6.45;;
57697;SDS011;43531;52.152;6.366;2024-02-26T04:31:31;10.00;;;6.50;;
57697;SDS011;43531;52.152;6.366;2024-02-26T04:32:04;8.18;;;7.35;;
57697;SDS011;43531;52.152;6.366;2024-02-26T04:32:36;8.30;;;7.25;;
57697;SDS011;43531;52.152;6.366;2024-02-26T04:33:08;6.97;;;6.32;;
57697;SDS011;43531;52.152;6.366;2024-02-26T04:33:40;7.55;;;6.75;;
57697;SDS011;43531;52.152;6.366;2024-02-26T04:34:13;7.55;;;6.80;;
57697;SDS011;43531;52.152;6.366;2024-02-26T04:34:45;7.00;;;6.30;;
57697;SDS011;43531;52.152;6.366;2024-02-26T04:35:17;6.78;;;5.78;;
57697;SDS011;43531;52.152;6.366;2024-02-26T04:35:49;7.53;;;6.78;;
57697;SDS011;43531;52.152;6.366;2024-02-26T04:36:20;7.85;;;7.15;;
57697;SDS011;43531;52.152;6.366;2024-02-26T04:36:53;8.85;;;7.60;;
57697;SDS011;43531;52.152;6.366;2024-02-26T04:37:25;8.10;;;7.30;;
57697;SDS011;43531;52.152;6.366;2024-02-26T04:38:02;8.15;;;6.78;;
57697;SDS011;43531;52.152;6.366;2024-02-26T04:38:34;7.40;;;6.50;;
57697;SDS011;43531;52.152;6.366;2024-02-26T04:39:05;7.60;;;6.80;;
57697;SDS011;43531;52.152;6.366;2024-02-26T04:39:37;7.63;;;6.72;;
57697;SDS011;43531;52.152;6.366;2024-02-26T04:40:09;8.00;;;6.70;;
57697;SDS011;43531;52.152;6.366;2024-02-26T04:40:41;7.93;;;7.20;;
57697;SDS011;43531;52.152;6.366;2024-02-26T04:41:13;10.40;;;7.70;;
57697;SDS011;43531;52.152;6.366;2024-02-26T04:41:44;8.20;;;7.10;;
57697;SDS011;43531;52.152;6.366;2024-02-26T04:42:16;7.53;;;6.75;;
57697;SDS011;43531;52.152;6.366;2024-02-26T04:42:48;7.38;;;6.60;;
57697;SDS011;43531;52.152;6.366;2024-02-26T04:43:20;10.45;;;7.72;;
57697;SDS011;43531;52.152;6.366;2024-02-26T04:43:51;9.68;;;8.20;;
57697;SDS011;43531;52.152;6.366;2024-02-26T04:44:23;8.13;;;6.90;;
57697;SDS011;43531;52.152;6.366;2024-02-26T04:44:55;10.85;;;7.38;;
57697;SDS011;43531;52.152;6.366;2024-02-26T04:45:26;7.35;;;6.65;;
57697;SDS011;43531;52.152;6.366;2024-02-26T04:45:58;8.77;;;7.45;;
57697;SDS011;43531;52.152;6.366;2024-02-26T04:46:30;9.23;;;6.80;;
57697;SDS011;43531;52.152;6.366;2024-02-26T04:47:02;10.38;;;6.90;;
57697;SDS011;43531;52.152;6.366;2024-02-26T04:47:34;7.70;;;6.93;;
57697;SDS011;43531;52.152;6.366;2024-02-26T04:48:06;7.35;;;6.65;;
57697;SDS011;43531;52.152;6.366;2024-02-26T04:48:38;8.15;;;7.30;;
57697;SDS011;43531;52.152;6.366;2024-02-26T04:49:10;9.15;;;7.13;;
57697;SDS011;43531;52.152;6.366;2024-02-26T04:49:42;7.25;;;6.57;;
57697;SDS011;43531;52.152;6.366;2024-02-26T04:50:14;8.35;;;6.63;;
57697;SDS011;43531;52.152;6.366;2024-02-26T04:50:46;10.13;;;7.25;;
57697;SDS011;43531;52.152;6.366;2024-02-26T04:51:17;8.18;;;7.15;;
57697;SDS011;43531;52.152;6.366;2024-02-26T04:51:49;8.02;;;6.65;;
57697;SDS011;43531;52.152;6.366;2024-02-26T04:52:21;9.27;;;8.38;;
57697;SDS011;43531;52.152;6.366;2024-02-26T04:52:53;7.38;;;6.63;;
57697;SDS011;43531;52.152;6.366;2024-02-26T04:53:24;8.82;;;7.30;;
57697;SDS011;43531;52.152;6.366;2024-02-26T04:53:56;7.40;;;6.65;;
57697;SDS011;43531;52.152;6.366;2024-02-26T04:54:28;8.35;;;7.55;;
57697;SDS011;43531;52.152;6.366;2024-02-26T04:54:59;8.65;;;7.25;;
57697;SDS011;43531;52.152;6.366;2024-02-26T04:55:31;6.80;;;6.15;;
57697;SDS011;43531;52.152;6.366;2024-02-26T04:56:04;7.97;;;6.40;;
57697;SDS011;43531;52.152;6.366;2024-02-26T04:56:35;8.60;;;6.40;;
57697;SDS011;43531;52.152;6.366;2024-02-26T04:57:07;7.45;;;6.20;;
57697;SDS011;43531;52.152;6.366;2024-02-26T04:57:39;8.43;;;7.55;;
57697;SDS011;43531;52.152;6.366;2024-02-26T04:58:11;8.30;;;6.65;;
57697;SDS011;43531;52.152;6.366;2024-02-26T04:58:42;7.28;;;6.43;;